createdAt,value
2019-02-28T00:02:45.047Z,4.4
2019-02-28T00:07:45.261Z,4.4
2019-02-28T00:12:28.606Z,4.3
2019-02-28T00:17:28.623Z,4.1
2019-02-28T00:22:28.829Z,4.0
2019-02-28T00:27:28.134Z,3.9
2019-02-28T00:32:28.044Z,3.9
2019-02-28T00:37:28.249Z,3.9
2019-02-28T00:42:28.699Z,3.8
2019-02-28T00:47:27.846Z,3.7
2019-02-28T00:52:27.690Z,3.7
2019-02-28T00:57:27.513Z,3.7
2019-02-28T01:02:28.026Z,3.7
2019-02-28T01:07:28.079Z,3.7
2019-02-28T01:12:28.121Z,3.7
2019-02-28T01:17:28.198Z,3.6
2019-02-28T01:22:28.076Z,3.5
2019-02-28T01:27:28.268Z,3.5
2019-02-28T01:32:27.495Z,3.4
2019-02-28T01:37:28.052Z,3.4
2019-02-28T01:42:27.990Z,3.4
2019-02-28T01:47:27.435Z,3.3
2019-02-28T01:52:27.455Z,3.2
2019-02-28T01:57:28.026Z,3.2
2019-02-28T02:02:28.202Z,3.2
2019-02-28T02:07:30.501Z,3.0
2019-02-28T02:12:31.177Z,3.0
2019-02-28T02:17:27.649Z,3.0
2019-02-28T02:22:28.431Z,2.9
2019-02-28T02:27:27.672Z,2.8
2019-02-28T02:32:27.853Z,2.8
2019-02-28T02:37:30.272Z,2.5
2019-02-28T02:42:28.919Z,2.5
2019-02-28T02:47:32.297Z,2.4
2019-02-28T02:52:30.351Z,2.5
2019-02-28T02:57:27.816Z,2.3
2019-02-28T03:02:28.632Z,2.3
2019-02-28T03:07:28.558Z,2.2
2019-02-28T03:12:31.013Z,2.3
2019-02-28T03:17:27.576Z,2.2
2019-02-28T03:22:29.732Z,2.2
2019-02-28T03:27:27.812Z,2.1
2019-02-28T03:32:38.961Z,2.1
2019-02-28T03:37:32.684Z,2.0
2019-02-28T03:42:28.853Z,2.0
2019-02-28T03:47:27.791Z,2.0
2019-02-28T03:52:28.621Z,2.0
2019-02-28T03:57:29.285Z,1.9
2019-02-28T04:02:27.800Z,1.9
2019-02-28T04:07:27.476Z,1.9
2019-02-28T04:12:28.030Z,1.9
2019-02-28T04:17:30.385Z,1.9
2019-02-28T04:22:27.429Z,2.0
2019-02-28T04:27:27.012Z,1.9
2019-02-28T04:32:28.127Z,2.1
2019-02-28T04:37:27.542Z,2.2
2019-02-28T04:42:28.148Z,2.2
2019-02-28T04:47:28.387Z,2.2
2019-02-28T04:52:28.114Z,2.2
2019-02-28T04:57:27.954Z,2.2
2019-02-28T05:02:27.868Z,2.1
2019-02-28T05:07:29.592Z,2.2
2019-02-28T05:12:27.376Z,2.1
2019-02-28T05:17:28.751Z,2.1
2019-02-28T05:22:27.537Z,2.1
2019-02-28T05:27:34.780Z,2.2
2019-02-28T05:32:28.361Z,2.1
2019-02-28T05:37:29.094Z,2.2
2019-02-28T05:42:28.423Z,2.2
2019-02-28T05:47:29.333Z,2.3
2019-02-28T05:52:30.407Z,2.3
2019-02-28T05:57:28.645Z,2.3
2019-02-28T06:02:29.131Z,2.4
2019-02-28T06:07:28.814Z,2.3
2019-02-28T06:12:28.951Z,2.3
2019-02-28T06:17:28.404Z,2.6
2019-02-28T06:22:30.526Z,2.6
2019-02-28T06:27:29.240Z,3.0
2019-02-28T06:32:28.136Z,3.4
2019-02-28T06:37:28.189Z,4.1
2019-02-28T06:42:27.940Z,4.0
2019-02-28T06:47:29.318Z,5.2
2019-02-28T06:52:28.666Z,5.1
2019-02-28T06:57:28.632Z,5.6
2019-02-28T07:02:28.459Z,5.8
2019-02-28T07:07:28.167Z,6.2
2019-02-28T07:12:29.736Z,6.7
2019-02-28T07:17:29.041Z,7.8
2019-02-28T07:22:28.229Z,7.7
2019-02-28T07:27:29.770Z,8.0
2019-02-28T07:32:28.181Z,8.5
2019-02-28T07:37:27.716Z,8.5
2019-02-28T07:42:28.355Z,8.7
2019-02-28T07:47:28.451Z,9.4
2019-02-28T07:52:32.246Z,9.8
2019-02-28T07:57:28.150Z,9.8
2019-02-28T08:02:28.713Z,10.3
2019-02-28T08:07:28.558Z,10.8
2019-02-28T08:12:30.695Z,11.3
2019-02-28T08:17:28.201Z,11.6
2019-02-28T08:22:28.122Z,11.9
2019-02-28T08:27:28.467Z,12.2
2019-02-28T08:32:28.487Z,12.2
2019-02-28T08:37:28.874Z,12.3
2019-02-28T08:42:28.238Z,12.7
2019-02-28T08:47:29.095Z,12.7
2019-02-28T08:52:28.993Z,13.2
2019-02-28T08:57:28.026Z,14.3
2019-02-28T09:02:30.334Z,14.2
2019-02-28T09:07:28.549Z,14.8
2019-02-28T09:12:29.848Z,15.3
2019-02-28T09:17:28.825Z,15.8
2019-02-28T09:22:28.122Z,16.3
2019-02-28T09:27:28.843Z,16.8
2019-02-28T09:32:28.224Z,17.5
2019-02-28T09:37:29.792Z,17.5
2019-02-28T09:42:28.891Z,18.2
2019-02-28T09:47:28.521Z,18.1
2019-02-28T09:52:28.292Z,18.5
2019-02-28T09:57:30.221Z,18.7
2019-02-28T10:02:28.085Z,18.9
2019-02-28T10:07:28.760Z,19.2
2019-02-28T10:12:27.606Z,19.8
2019-02-28T10:17:29.702Z,19.9
2019-02-28T10:22:29.245Z,20.0
2019-02-28T10:27:28.986Z,19.9
2019-02-28T10:32:28.130Z,20.2
2019-02-28T10:37:28.123Z,20.5
2019-02-28T10:42:28.264Z,21.0
2019-02-28T10:47:29.762Z,21.6
2019-02-28T10:52:30.585Z,21.5
2019-02-28T10:57:28.728Z,21.7
2019-02-28T11:02:27.806Z,21.7
2019-02-28T11:07:28.438Z,21.6
2019-02-28T11:12:28.241Z,21.7
2019-02-28T11:17:30.350Z,22.1
2019-02-28T11:22:28.240Z,22.4
2019-02-28T11:27:28.163Z,22.7
2019-02-28T11:32:29.310Z,22.7
2019-02-28T11:37:28.282Z,22.2
2019-02-28T11:42:28.918Z,22.1
2019-02-28T11:47:28.991Z,21.7
2019-02-28T11:52:28.012Z,21.4
2019-02-28T11:57:27.745Z,21.4
2019-02-28T12:02:28.896Z,21.5
2019-02-28T12:07:28.530Z,21.5
2019-02-28T12:12:28.259Z,21.8
2019-02-28T12:17:29.335Z,22.2
2019-02-28T12:22:27.853Z,22.0
2019-02-28T12:27:28.430Z,21.7
2019-02-28T12:32:28.679Z,21.5
2019-02-28T12:37:28.735Z,21.5
2019-02-28T12:42:28.197Z,21.1
2019-02-28T12:47:29.498Z,20.5
2019-02-28T12:52:28.028Z,20.9
2019-02-28T12:57:28.887Z,20.9
2019-02-28T13:02:29.099Z,21.1
2019-02-28T13:07:30.375Z,21.6
2019-02-28T13:12:28.891Z,21.6
2019-02-28T13:17:31.588Z,21.8
2019-02-28T13:22:28.451Z,21.7
2019-02-28T13:27:28.080Z,21.8
2019-02-28T13:32:27.795Z,22.1
2019-02-28T13:37:29.195Z,22.2
2019-02-28T13:42:28.257Z,22.2
2019-02-28T13:47:28.812Z,22.0
2019-02-28T13:52:28.583Z,22.0
2019-02-28T13:57:27.993Z,22.1
2019-02-28T14:02:32.539Z,22.1
2019-02-28T14:07:30.049Z,22.5
2019-02-28T14:12:28.882Z,22.5
2019-02-28T14:17:28.877Z,22.9
2019-02-28T14:22:28.098Z,22.9
2019-02-28T14:27:28.487Z,23.1
2019-02-28T14:32:29.356Z,23.5
2019-02-28T14:37:28.083Z,24.9
2019-02-28T14:42:28.117Z,24.8
2019-02-28T14:47:30.457Z,25.9
2019-02-28T14:52:28.896Z,25.9
2019-02-28T14:57:29.667Z,27.3
2019-02-28T15:02:28.888Z,27.9
2019-02-28T15:07:28.481Z,28.6
2019-02-28T15:12:28.166Z,29.2
2019-02-28T15:17:28.700Z,29.5
2019-02-28T15:22:28.326Z,29.9
2019-02-28T15:27:28.300Z,28.5
2019-02-28T15:32:29.561Z,28.5
2019-02-28T15:37:30.333Z,29.0
2019-02-28T15:42:28.777Z,28.9
2019-02-28T15:47:28.723Z,28.4
2019-02-28T15:52:28.636Z,27.3
2019-02-28T15:57:30.102Z,25.8
2019-02-28T16:02:28.662Z,22.6
2019-02-28T16:07:32.200Z,23.3
2019-02-28T16:12:28.324Z,23.3
2019-02-28T16:17:29.322Z,23.4
2019-02-28T16:22:28.584Z,21.5
2019-02-28T16:27:29.493Z,20.1
2019-02-28T16:32:29.911Z,19.0
2019-02-28T16:37:28.610Z,18.9
2019-02-28T16:42:28.442Z,17.6
2019-02-28T16:47:29.245Z,17.5
2019-02-28T16:52:28.050Z,16.7
2019-02-28T16:57:31.013Z,16.2
2019-02-28T17:02:29.240Z,16.1
2019-02-28T17:07:27.879Z,15.9
2019-02-28T17:12:28.102Z,15.6
2019-02-28T17:17:29.030Z,15.3
2019-02-28T17:22:28.572Z,15.1
2019-02-28T17:27:28.180Z,14.8
2019-02-28T17:32:31.190Z,14.6
2019-02-28T17:37:28.881Z,14.4
2019-02-28T17:42:28.363Z,14.0
2019-02-28T17:47:29.342Z,14.0
2019-02-28T17:52:30.427Z,13.9
2019-02-28T17:57:28.399Z,13.7
2019-02-28T18:02:28.146Z,13.6
2019-02-28T18:07:29.441Z,13.4
2019-02-28T18:12:29.312Z,13.2
2019-02-28T18:17:27.835Z,13.1
2019-02-28T18:22:27.407Z,13.0
2019-02-28T18:27:27.919Z,12.6
2019-02-28T18:32:29.709Z,12.4
2019-02-28T18:37:28.132Z,12.4
2019-02-28T18:42:28.510Z,12.4
2019-02-28T18:47:28.086Z,12.4
2019-02-28T18:52:28.535Z,12.3
2019-02-28T18:57:27.851Z,12.3
2019-02-28T19:02:29.116Z,12.2
2019-02-28T19:07:28.649Z,12.1
2019-02-28T19:12:28.144Z,12.0
2019-02-28T19:17:28.069Z,11.9
2019-02-28T19:22:28.207Z,11.8
2019-02-28T19:27:27.511Z,11.8
2019-02-28T19:32:28.282Z,11.7
2019-02-28T19:37:27.785Z,11.7
2019-02-28T19:42:28.041Z,11.7
2019-02-28T19:47:28.917Z,11.4
2019-02-28T19:52:27.090Z,11.3
2019-02-28T19:57:28.259Z,11.3
2019-02-28T20:02:27.774Z,11.3
2019-02-28T20:07:28.874Z,11.3
2019-02-28T20:12:28.351Z,11.2
2019-02-28T20:17:27.517Z,11.3
2019-02-28T20:22:27.454Z,11.4
2019-02-28T20:27:28.233Z,11.5
2019-02-28T20:32:27.264Z,11.4
2019-02-28T20:37:28.428Z,11.4
2019-02-28T20:42:28.392Z,11.5
2019-02-28T20:47:28.868Z,11.4
2019-02-28T20:52:28.616Z,11.4
2019-02-28T20:57:27.935Z,11.4
2019-02-28T21:02:27.893Z,11.4
2019-02-28T21:07:28.673Z,11.4
2019-02-28T21:12:28.275Z,11.3
2019-02-28T21:17:29.481Z,10.9
2019-02-28T21:22:28.240Z,10.5
2019-02-28T21:27:28.084Z,10.5
2019-02-28T21:32:27.809Z,10.5
2019-02-28T21:37:28.323Z,10.5
2019-02-28T21:42:27.966Z,10.5
2019-02-28T21:47:28.664Z,10.4
2019-02-28T21:52:28.020Z,10.5
2019-02-28T21:57:27.610Z,10.4
2019-02-28T22:02:27.145Z,10.4
2019-02-28T22:07:28.034Z,10.2
2019-02-28T22:12:27.333Z,10.1
2019-02-28T22:17:28.320Z,10.0
2019-02-28T22:22:27.926Z,9.9
2019-02-28T22:27:28.697Z,9.8
2019-02-28T22:32:27.951Z,9.6
2019-02-28T22:37:28.683Z,9.6
2019-02-28T22:42:27.505Z,9.7
2019-02-28T22:47:27.985Z,9.7
2019-02-28T22:52:28.547Z,9.7
2019-02-28T22:57:27.785Z,9.7
2019-02-28T23:02:28.155Z,9.7
2019-02-28T23:07:29.075Z,9.7
2019-02-28T23:12:27.802Z,9.7
2019-02-28T23:22:47.765Z,9.7
2019-02-28T23:27:46.641Z,9.7
2019-02-28T23:32:46.536Z,9.7
2019-02-28T23:37:47.090Z,9.6
2019-02-28T23:42:46.380Z,9.6
2019-02-28T23:47:45.999Z,9.6
2019-02-28T23:52:46.576Z,9.6
2019-02-28T23:57:46.775Z,9.6
